Time;durP1;ratioP1;P1;durP2;ratioP2;P2;SDS_P1;SDS_P2;PMS_P1;PMS_P2;Temp;Humidity;BMP_temperature;BMP_pressure;BME280_temperature;BME280_humidity;BME280_pressure;Samples;Min_cycle;Max_cycle;Signal;HPM_P1;HPM_P2
2023/10/11 00:00:58;;;;;;;3.10;2.33;;;;;;;5.71;100.00;100997.09;4956115;28;20039;-67
2023/10/11 00:05:50;;;;;;;4.70;2.73;;;;;;;5.68;100.00;100988.56;4956753;29;20035;-68
2023/10/11 00:08:16;;;;;;;3.70;2.03;;;;;;;5.73;100.00;100981.09;4958005;29;20099;-65
2023/10/11 00:10:53;;;;;;;3.37;2.27;;;;;;;5.76;100.00;100979.03;4942185;29;20042;-66
2023/10/11 00:13:25;;;;;;;2.70;2.03;;;;;;;5.63;100.00;100944.03;4957237;28;20118;-66
2023/10/11 00:15:52;;;;;;;4.77;3.00;;;;;;;5.75;100.00;100965.97;4955497;28;20039;-66
2023/10/11 00:18:26;;;;;;;3.60;2.57;;;;;;;5.74;100.00;100970.41;4955670;28;20043;-64
2023/10/11 00:20:57;;;;;;;2.40;2.20;;;;;;;5.66;100.00;100946.44;4955757;28;20084;-67
2023/10/11 00:23:27;;;;;;;4.13;2.17;;;;;;;5.46;100.00;100908.44;4955355;28;20114;-66
2023/10/11 00:25:58;;;;;;;3.73;2.90;;;;;;;5.76;100.00;100949.97;4955738;28;20039;-67
2023/10/11 00:28:24;;;;;;;3.77;2.53;;;;;;;5.76;100.00;100943.84;4955629;28;20043;-66
2023/10/11 00:30:55;;;;;;;4.63;2.63;;;;;;;5.48;100.00;100877.44;4955513;28;20050;-66
2023/10/11 00:33:21;;;;;;;4.13;2.47;;;;;;;5.66;100.00;100906.78;4955272;28;20039;-65
2023/10/11 00:35:49;;;;;;;4.03;2.80;;;;;;;5.67;100.00;100902.34;4954947;28;20039;-66
2023/10/11 00:38:20;;;;;;;2.90;2.10;;;;;;;5.48;100.00;100858.13;4955311;28;20128;-66
2023/10/11 00:41:07;;;;;;;2.90;2.30;;;;;;;5.77;100.00;100906.72;4954328;29;20063;-65
2023/10/11 00:43:38;;;;;;;3.07;2.57;;;;;;;5.79;100.00;100902.19;4957079;28;20035;-66
2023/10/11 00:46:09;;;;;;;4.33;2.07;;;;;;;5.64;100.00;100874.38;4956664;28;20035;-66
2023/10/11 00:48:51;;;;;;;2.37;1.90;;;;;;;5.68;100.00;100878.44;4954366;29;20058;-65
2023/10/11 00:51:23;;;;;;;3.67;2.10;;;;;;;5.70;100.00;100876.50;4954933;28;20071;-65
2023/10/11 00:53:49;;;;;;;2.60;1.90;;;;;;;5.66;100.00;100866.31;4954984;28;20063;-64
2023/10/11 00:56:18;;;;;;;4.20;2.23;;;;;;;4.59;100.00;100693.88;4953237;28;20050;-63
2023/10/11 00:58:44;;;;;;;4.95;2.28;;;;;;;5.26;100.00;100804.47;4954675;28;20442;-67
2023/10/11 01:01:10;;;;;;;4.47;1.70;;;;;;;5.57;100.00;100863.50;4953949;29;20130;-64
2023/10/11 01:03:37;;;;;;;1.93;1.63;;;;;;;5.46;100.00;100842.41;4956182;28;20065;-66
2023/10/11 01:06:04;;;;;;;1.90;1.60;;;;;;;5.32;100.00;100818.13;4955699;28;20099;-64
2023/10/11 01:08:38;;;;;;;2.53;2.13;;;;;;;5.49;100.00;100849.22;4954028;29;20047;-66
2023/10/11 01:11:11;;;;;;;2.50;2.07;;;;;;;5.49;100.00;100852.72;4953670;29;20282;-66
2023/10/11 01:13:40;;;;;;;4.23;1.87;;;;;;;5.41;100.00;100827.91;4937750;29;20446;-65
2023/10/11 01:16:10;;;;;;;2.37;1.70;;;;;;;5.37;100.00;100815.91;4954690;28;20046;-65
2023/10/11 01:18:42;;;;;;;3.50;1.97;;;;;;;5.34;100.00;100810.91;4938813;29;20027;-65
2023/10/11 01:21:09;;;;;;;2.87;2.20;;;;;;;5.29;100.00;100816.56;4955604;28;20046;-66
2023/10/11 01:23:35;;;;;;;2.50;2.00;;;;;;;5.29;100.00;100816.56;4954013;29;20045;-65
2023/10/11 01:26:07;;;;;;;4.13;1.87;;;;;;;4.93;100.00;100759.72;4956773;28;20471;-65
2023/10/11 01:28:35;;;;;;;3.60;2.00;;;;;;;5.32;100.00;100828.69;4958972;28;20034;-63
2023/10/11 01:31:08;;;;;;;3.67;2.00;;;;;;;5.26;100.00;100814.19;4959056;28;20050;-66
2023/10/11 01:33:41;;;;;;;3.93;1.93;;;;;;;5.07;100.00;100782.34;4960502;29;20293;-64
2023/10/11 01:36:13;;;;;;;3.50;2.20;;;;;;;5.22;100.00;100818.03;4958750;28;20299;-65
2023/10/11 01:38:48;;;;;;;2.87;1.73;;;;;;;5.19;100.00;100811.19;4957033;29;20047;-66
2023/10/11 01:41:19;;;;;;;3.50;1.83;;;;;;;4.73;100.00;100742.88;4958146;28;20055;-64
2023/10/11 01:43:49;;;;;;;3.13;2.30;;;;;;;5.06;100.00;100807.91;4960111;28;20043;-65
2023/10/11 01:46:17;;;;;;;3.47;2.07;;;;;;;5.00;100.00;100789.09;4960422;28;20267;-65
2023/10/11 01:48:44;;;;;;;3.40;1.73;;;;;;;4.83;100.00;100772.81;4957000;28;20043;-64
2023/10/11 01:51:09;;;;;;;3.57;2.20;;;;;;;4.78;100.00;100777.66;4955651;28;20262;-64
2023/10/11 01:53:38;;;;;;;2.50;2.00;;;;;;;4.71;100.00;100770.38;4953298;28;20270;-65
2023/10/11 01:56:05;;;;;;;;;;;;;;;4.72;100.00;100774.69;4954493;29;20050;-64
2023/10/11 01:58:30;;;;;;;2.50;1.77;;;;;;;3.51;100.00;100586.72;4968699;28;20029;-66
2023/10/11 02:00:56;;;;;;;2.80;1.80;;;;;;;4.50;100.00;100752.66;4953874;28;20284;-65
2023/10/11 02:03:24;;;;;;;4.03;2.40;;;;;;;4.42;100.00;100746.34;4954450;29;20134;-64
2023/10/11 02:05:50;;;;;;;2.53;2.13;;;;;;;4.43;100.00;100755.94;4957919;28;20039;-64
2023/10/11 02:08:17;;;;;;;2.73;1.97;;;;;;;4.40;100.00;100758.81;4958638;28;20121;-64
2023/10/11 02:10:44;;;;;;;3.80;2.10;;;;;;;4.27;100.00;100735.22;4955972;29;20290;-65
2023/10/11 02:13:11;;;;;;;2.95;2.00;;;;;;;4.29;100.00;100741.19;4956117;28;20283;-64
2023/10/11 02:15:39;;;;;;;4.23;2.00;;;;;;;4.15;100.00;100704.56;4952688;29;20587;-64
2023/10/11 02:18:10;;;;;;;3.40;2.38;;;;;;;4.12;100.00;100699.53;4953926;28;20042;-65
2023/10/11 02:20:45;;;;;;;3.27;2.27;;;;;;;4.23;100.00;100718.81;4954259;28;20043;-66
2023/10/11 02:23:13;;;;;;;4.13;2.07;;;;;;;4.26;100.00;100721.19;4955259;28;20283;-65
2023/10/11 02:25:41;;;;;;;5.35;2.20;;;;;;;4.10;100.00;100690.94;4953336;29;20310;-64
2023/10/11 02:28:09;;;;;;;3.43;2.27;;;;;;;4.17;100.00;100702.66;4955233;29;20062;-65
2023/10/11 02:30:38;;;;;;;8.25;2.50;;;;;;;4.15;100.00;100707.22;4955152;29;20362;-67
2023/10/11 02:33:07;;;;;;;;;;;;;;;4.13;100.00;100698.59;4955445;28;20039;-65
2023/10/11 02:35:34;;;;;;;;;;;;;;;4.10;100.00;100693.56;4954693;29;20390;-67
2023/10/11 02:38:00;;;;;;;1.90;1.60;;;;;;;3.99;100.00;100682.06;4955125;28;19919;-65
2023/10/11 02:40:30;;;;;;;4.03;2.23;;;;;;;3.95;100.00;100688.53;4954298;28;20374;-65
2023/10/11 02:43:03;;;;;;;8.20;1.98;;;;;;;3.96;100.00;100692.84;4954129;28;20314;-64
2023/10/11 02:45:32;;;;;;;2.23;1.90;;;;;;;3.98;100.00;100698.00;4954932;29;20042;-65
2023/10/11 02:48:02;;;;;;;;;;;;;;;3.97;100.00;100691.06;4953998;28;20308;-64
2023/10/11 02:50:36;;;;;;;4.27;2.17;;;;;;;3.95;100.00;100691.19;4953499;28;20439;-64
2023/10/11 02:53:05;;;;;;;3.20;2.40;;;;;;;3.85;100.00;100670.97;4952051;29;20283;-63
2023/10/11 02:55:31;;;;;;;2.63;2.43;;;;;;;3.74;100.00;100653.34;4956162;28;20979;-66
2023/10/11 02:58:08;;;;;;;9.63;3.50;;;;;;;3.90;100.00;100688.06;4957517;28;20857;-65
2023/10/11 03:00:36;;;;;;;5.00;2.20;;;;;;;3.62;100.00;100638.53;4957572;29;20270;-64
2023/10/11 03:03:07;;;;;;;3.80;2.13;;;;;;;3.86;100.00;100678.75;4958573;29;20639;-65
2023/10/11 03:05:37;;;;;;;3.50;2.20;;;;;;;3.75;100.00;100660.28;4957858;28;20303;-65
2023/10/11 03:08:20;;;;;;;3.00;2.63;;;;;;;3.72;100.00;100647.38;4957090;28;20275;-66
2023/10/11 03:10:53;;;;;;;6.80;2.27;;;;;;;3.68;100.00;100640.66;4956398;29;20307;-65
2023/10/11 03:13:24;;;;;;;7.60;2.77;;;;;;;3.71;100.00;100646.53;4958805;28;20782;-65
2023/10/11 03:15:55;;;;;;;3.03;2.60;;;;;;;3.56;100.00;100628.50;4956717;28;20271;-64
2023/10/11 03:18:32;;;;;;;6.40;2.17;;;;;;;3.60;100.00;100640.44;4956201;28;20675;-66
2023/10/11 03:21:17;;;;;;;3.87;2.63;;;;;;;3.59;100.00;100641.41;4959737;28;20758;-65
2023/10/11 03:23:47;;;;;;;4.43;2.40;;;;;;;3.58;100.00;100613.41;4959200;29;20309;-66
2023/10/11 03:29:03;;;;;;;3.80;2.50;;;;;;;3.80;100.00;100608.09;4956478;28;20762;-65
2023/10/11 03:31:33;;;;;;;3.43;2.40;;;;;;;3.89;100.00;100604.72;4957134;28;20402;-64
2023/10/11 03:34:14;;;;;;;4.53;2.30;;;;;;;3.80;100.00;100584.41;4957353;28;20283;-66
2023/10/11 03:36:52;;;;;;;2.73;2.00;;;;;;;3.91;100.00;100587.00;4956371;28;20801;-64
2023/10/11 03:39:28;;;;;;;5.57;2.80;;;;;;;3.84;100.00;100556.84;4955123;29;20282;-66
2023/10/11 03:42:12;;;;;;;2.30;2.10;;;;;;;3.90;100.00;100564.25;4955136;29;20726;-65
2023/10/11 03:44:45;;;;;;;3.33;2.33;;;;;;;4.14;100.00;100586.94;4956396;28;20805;-64
2023/10/11 03:47:15;;;;;;;3.93;2.53;;;;;;;4.14;100.00;100586.94;4956324;28;20283;-64
2023/10/11 03:52:19;;;;;;;3.15;2.30;;;;;;;4.17;100.00;100581.41;4956941;28;20662;-66
2023/10/11 03:55:10;;;;;;;4.10;2.60;;;;;;;4.09;100.00;100568.03;4955030;29;20054;-66
2023/10/11 03:57:41;;;;;;;3.90;2.03;;;;;;;3.93;100.00;100528.91;4957952;28;20338;-66
2023/10/11 04:03:05;;;;;;;3.17;2.10;;;;;;;4.22;100.00;100572.16;4961456;28;20282;-65
2023/10/11 04:05:40;;;;;;;4.13;2.23;;;;;;;4.24;100.00;100566.75;4956038;28;20742;-66
2023/10/11 04:08:09;;;;;;;3.30;2.27;;;;;;;3.97;100.00;100528.53;4956269;28;20274;-66
2023/10/11 04:10:49;;;;;;;2.67;2.30;;;;;;;4.25;100.00;100571.06;4938683;29;20289;-65
2023/10/11 04:13:18;;;;;;;2.30;2.10;;;;;;;4.28;100.00;100569.00;4954700;29;20283;-67
2023/10/11 04:15:49;;;;;;;2.83;2.30;;;;;;;4.32;100.00;100553.75;4955752;28;20311;-65
2023/10/11 04:23:36;;;;;;;3.40;2.60;;;;;;;4.38;100.00;100529.53;4954648;29;20285;-66
2023/10/11 04:26:16;;;;;;;3.63;2.67;;;;;;;4.29;100.00;100509.19;4955461;29;20294;-66
2023/10/11 04:28:42;;;;;;;5.30;2.60;;;;;;;4.38;100.00;100516.38;4955543;28;20282;-65
2023/10/11 04:33:54;;;;;;;3.07;2.27;;;;;;;4.10;100.00;100465.13;4955171;29;20038;-67
2023/10/11 04:36:23;;;;;;;7.73;2.60;;;;;;;4.34;100.00;100494.69;4955525;28;20346;-66
2023/10/11 04:38:50;;;;;;;2.90;2.60;;;;;;;4.43;100.00;100486.97;4953698;29;20282;-69
2023/10/11 04:41:19;;;;;;;4.13;2.97;;;;;;;4.36;100.00;100473.47;4955163;29;20050;-71
2023/10/11 04:43:51;;;;;;;5.13;3.10;;;;;;;4.46;100.00;100484.91;4955067;28;20283;-69
2023/10/11 04:46:18;;;;;;;2.77;2.57;;;;;;;4.47;100.00;100477.81;4955880;28;20270;-66
2023/10/11 04:48:45;;;;;;;4.07;2.70;;;;;;;4.24;100.00;100429.69;4955736;28;20369;-67
2023/10/11 04:59:06;;;;;;;5.20;2.77;;;;;;;4.31;100.00;100417.63;4953698;29;20325;-68
2023/10/11 05:04:16;;;;;;;4.60;2.97;;;;;;;4.44;100.00;100420.09;4955078;28;20310;-66
2023/10/11 05:06:43;;;;;;;6.93;3.03;;;;;;;4.43;100.00;100416.59;4953466;29;20302;-67
2023/10/11 05:09:29;;;;;;;9.67;3.10;;;;;;;4.54;100.00;100411.22;4954656;28;20754;-65
2023/10/11 05:12:19;;;;;;;4.03;2.80;;;;;;;4.57;100.00;100420.69;4954639;28;20262;-66
2023/10/11 05:19:45;;;;;;;5.60;3.60;;;;;;;4.50;100.00;100398.44;4954895;28;20058;-65
2023/10/11 05:23:05;;;;;;;3.70;2.63;;;;;;;4.47;100.00;100394.28;4954744;28;20298;-65
2023/10/11 05:25:37;;;;;;;3.67;2.90;;;;;;;4.30;100.00;100356.16;4946394;29;20702;-67
2023/10/11 05:30:44;;;;;;;4.33;3.57;;;;;;;4.55;100.00;100383.06;4954249;29;20373;-64
2023/10/11 05:52:30;;;;;;;12.63;6.50;;;;;;;4.79;100.00;100324.69;4953702;28;20306;-69
2023/10/11 05:54:56;;;;;;;8.70;4.40;;;;;;;4.82;100.00;100319.13;4954067;28;20414;-69
2023/10/11 05:57:27;;;;;;;5.27;3.20;;;;;;;4.85;100.00;100310.94;4953382;28;20385;-68
2023/10/11 05:59:53;;;;;;;5.43;3.43;;;;;;;4.92;100.00;100314.72;4953853;28;20281;-65
2023/10/11 06:02:19;;;;;;;5.50;3.87;;;;;;;4.85;100.00;100281.91;4952709;29;20278;-66
2023/10/11 06:04:46;;;;;;;4.87;3.70;;;;;;;5.03;100.00;100300.56;4953663;28;20126;-69
2023/10/11 06:07:15;;;;;;;7.77;5.23;;;;;;;5.03;100.00;100272.34;4953845;28;20338;-66
2023/10/11 06:09:43;;;;;;;8.10;4.73;;;;;;;5.16;100.00;100280.81;4953616;28;20275;-66
2023/10/11 06:12:33;;;;;;;6.57;5.23;;;;;;;5.17;100.00;100271.09;4954050;28;20271;-67
2023/10/11 06:14:57;;;;;;;6.73;4.43;;;;;;;5.27;100.00;100262.22;4953352;29;20270;-67
2023/10/11 06:17:41;;;;;;;5.63;4.00;;;;;;;5.22;100.00;100245.97;4953959;28;20291;-66
2023/10/11 06:20:27;;;;;;;6.83;4.27;;;;;;;5.36;100.00;100249.97;4954177;28;20275;-66
2023/10/11 06:22:57;;;;;;;11.37;5.60;;;;;;;5.22;100.00;100227.47;4954089;28;20274;-67
2023/10/11 06:25:49;;;;;;;11.73;5.97;;;;;;;5.24;100.00;100214.97;4953573;28;20281;-66
2023/10/11 06:28:13;;;;;;;10.20;4.93;;;;;;;5.23;100.00;100202.75;4953354;29;20640;-67
2023/10/11 06:30:43;;;;;;;10.20;6.40;;;;;;;5.45;100.00;100227.13;4953857;28;20817;-65
2023/10/11 06:33:12;;;;;;;13.13;6.70;;;;;;;5.39;100.00;100211.88;4953770;28;20358;-68
2023/10/11 06:35:43;;;;;;;8.17;4.30;;;;;;;5.09;100.00;100157.47;4954369;28;20369;-67
2023/10/11 06:38:11;;;;;;;7.40;4.53;;;;;;;5.06;100.00;100158.59;4952796;29;20483;-64
2023/10/11 06:40:49;;;;;;;6.73;3.60;;;;;;;5.45;100.00;100214.78;4953549;28;20319;-67
2023/10/11 06:43:15;;;;;;;8.07;4.90;;;;;;;5.43;100.00;100197.41;4953565;28;20766;-67
2023/10/11 06:45:42;;;;;;;7.63;4.40;;;;;;;5.52;100.00;100213.25;4953799;28;20816;-66
2023/10/11 06:48:10;;;;;;;8.33;4.60;;;;;;;5.46;100.00;100192.66;4953156;28;20286;-65
2023/10/11 06:50:37;;;;;;;6.50;3.67;;;;;;;5.55;100.00;100196.28;4953908;28;20845;-67
2023/10/11 06:53:07;;;;;;;10.53;5.57;;;;;;;5.66;100.00;100208.47;4955259;28;20446;-66
2023/10/11 06:55:39;;;;;;;8.70;4.77;;;;;;;5.54;100.00;100176.13;4956054;28;20279;-65
2023/10/11 06:58:21;;;;;;;6.83;3.87;;;;;;;5.67;100.00;100189.81;4960619;28;20446;-68
2023/10/11 07:00:47;;;;;;;7.60;4.40;;;;;;;5.80;100.00;100179.78;4957424;28;20277;-69
2023/10/11 07:05:49;;;;;;;6.90;4.43;;;;;;;6.00;100.00;100164.66;4957667;28;20043;-65
2023/10/11 07:08:20;;;;;;;8.50;4.25;;;;;;;6.12;100.00;100152.09;4957080;28;20271;-67
2023/10/11 07:16:27;;;;;;;16.63;9.67;;;;;;;6.06;100.00;100116.47;4957749;28;20035;-66
2023/10/11 07:18:56;;;;;;;10.97;5.47;;;;;;;6.12;100.00;100141.50;4957204;28;20031;-68
2023/10/11 07:21:40;;;;;;;9.07;4.23;;;;;;;5.99;100.00;100098.72;4956701;28;20369;-66
2023/10/11 07:24:19;;;;;;;6.13;4.27;;;;;;;6.12;100.00;100093.94;4957180;28;20035;-66
2023/10/11 07:29:13;;;;;;;21.13;6.40;;;;;;;6.21;100.00;100087.72;4959134;28;20063;-66
2023/10/11 07:31:48;;;;;;;8.55;4.90;;;;;;;6.35;100.00;100105.69;4957858;29;20096;-65
2023/10/11 07:34:20;;;;;;;11.50;5.10;;;;;;;6.37;100.00;100103.75;4955175;29;20414;-68
2023/10/11 07:36:50;;;;;;;7.50;4.13;;;;;;;6.19;100.00;100071.19;4957794;28;20039;-67
2023/10/11 07:39:25;;;;;;;6.60;4.87;;;;;;;6.34;100.00;100093.44;4957325;28;20063;-68
2023/10/11 07:42:02;;;;;;;9.93;5.17;;;;;;;6.15;100.00;100052.16;4957165;28;20043;-65
2023/10/11 07:44:30;;;;;;;7.50;4.57;;;;;;;6.01;100.00;100022.75;4956712;28;20043;-65
2023/10/11 07:46:56;;;;;;;9.18;4.70;;;;;;;6.28;100.00;100075.56;4956326;29;20039;-66
2023/10/11 07:49:24;;;;;;;10.80;6.47;;;;;;;6.19;100.00;100073.81;4956963;28;20106;-65
2023/10/11 07:51:53;;;;;;;8.73;5.17;;;;;;;6.23;100.00;100083.13;4957658;28;20117;-66
2023/10/11 07:54:20;;;;;;;10.80;5.77;;;;;;;6.26;100.00;100080.16;4959642;28;20091;-68
2023/10/11 07:56:55;;;;;;;6.67;4.67;;;;;;;6.14;100.00;100066.34;4957582;28;20150;-66
2023/10/11 07:59:26;;;;;;;11.73;6.00;;;;;;;6.05;100.00;100046.09;4956678;28;20122;-65
2023/10/11 08:01:56;;;;;;;10.70;6.43;;;;;;;6.10;100.00;100043.03;4956037;28;20039;-66
2023/10/11 08:04:22;;;;;;;9.00;5.47;;;;;;;6.00;100.00;100032.50;4955898;28;20035;-64
2023/10/11 08:06:59;;;;;;;9.07;6.57;;;;;;;5.98;100.00;100026.53;4954602;28;20449;-64
2023/10/11 08:09:45;;;;;;;9.60;6.70;;;;;;;5.97;100.00;100026.69;4956362;28;20031;-66
2023/10/11 08:12:19;;;;;;;10.73;6.97;;;;;;;5.78;100.00;99987.97;4956029;28;20042;-68
2023/10/11 08:14:45;;;;;;;12.07;7.20;;;;;;;5.86;100.00;99983.63;4956004;28;20159;-66
2023/10/11 08:17:16;;;;;;;7.03;6.03;;;;;;;5.98;100.00;99970.19;4955836;28;20039;-66
2023/10/11 08:19:46;;;;;;;10.80;6.93;;;;;;;6.14;100.00;99986.22;4956482;28;20143;-66
2023/10/11 08:22:16;;;;;;;11.77;7.60;;;;;;;6.04;100.00;99964.31;4955921;28;20035;-65
2023/10/11 08:24:49;;;;;;;16.57;9.53;;;;;;;6.03;100.00;99975.84;4955625;28;20095;-65
2023/10/11 08:27:51;;;;;;;9.97;7.30;;;;;;;6.00;100.00;99976.16;4956006;28;20384;-63
2023/10/11 08:30:09;;;;;;;7.77;6.00;;;;;;;6.02;100.00;99976.84;4954591;29;20047;-65
2023/10/11 08:32:42;;;;;;;12.73;7.20;;;;;;;5.94;100.00;99963.56;4955746;28;20039;-65
2023/10/11 08:35:11;;;;;;;12.63;6.90;;;;;;;5.98;100.00;99964.91;4955127;28;20062;-67
2023/10/11 08:37:37;;;;;;;15.07;7.27;;;;;;;6.05;100.00;99966.78;4955587;28;20031;-68
2023/10/11 08:40:34;;;;;;;13.37;9.20;;;;;;;6.07;100.00;99958.69;4955526;28;20086;-66
2023/10/11 08:42:52;;;;;;;12.43;7.50;;;;;;;6.13;100.00;99947.53;4954124;29;20058;-68
2023/10/11 08:45:28;;;;;;;8.97;7.73;;;;;;;6.15;100.00;99935.00;4955202;28;20167;-66
2023/10/11 08:47:55;;;;;;;15.33;7.57;;;;;;;6.14;100.00;99920.13;4956101;28;20031;-66
2023/10/11 08:50:21;;;;;;;12.93;8.30;;;;;;;6.03;100.00;99893.91;4958184;28;20062;-66
2023/10/11 08:52:47;;;;;;;13.57;9.40;;;;;;;6.18;100.00;99909.06;4959284;28;20039;-68
2023/10/11 08:55:14;;;;;;;12.70;8.67;;;;;;;6.15;100.00;99898.81;4956452;29;20390;-67
2023/10/11 08:57:40;;;;;;;10.73;7.83;;;;;;;6.12;100.00;99887.72;4953892;28;20047;-67
2023/10/11 09:00:49;;;;;;;10.00;7.10;;;;;;;5.90;100.00;99858.16;4955365;28;20126;-68
2023/10/11 09:02:56;;;;;;;11.80;8.17;;;;;;;6.07;100.00;99885.56;4946295;29;20400;-66
2023/10/11 09:05:32;;;;;;;16.10;10.70;;;;;;;6.09;100.00;99875.66;4956352;28;20039;-68
2023/10/11 09:08:02;;;;;;;16.17;9.00;;;;;;;6.10;100.00;99873.84;4955444;28;20035;-67
